WetterOnline ( http://www.wetteronline.de )

Wetter aktuell Inchenhofen

Aktuelles Wetter: Augsburg/Mühlhausen (477m)

6-stündlich | Neueste Meldungen
Ortszeit Temperatur Wetter
So, 22.07. 2:00 16.7° C leichter Regen
Sa, 21.07. 20:00 18.7° C wolkig
Sa, 21.07. 14:00 18.4° C Regen
Sa, 21.07. 8:00 17.2° C Regen
Sa, 21.07. 2:00 17.4° C leichter Regen
Fr, 20.07. 20:00 24.8° C bewölkt
Fr, 20.07. 14:00 28.1° C wolkenlos
Fr, 20.07. 8:00 16.6° C wolkenlos
Ortszeit Temperatur Wetter
So, 22.07. 4:30 16.3° C leichter Regen
So, 22.07. 4:20 16° C -
So, 22.07. 4:10 16.3° C leichter Regen
So, 22.07. 4:00 16.4° C leichter Regen
So, 22.07. 3:50 16.4° C leichter Regen
So, 22.07. 3:40 16.4° C leichter Regen
So, 22.07. 3:30 16.4° C leichter Regen
So, 22.07. 3:00 16.5° C leichter Regen
So, 22.07. 2:30 16.7° C leichter Regen
So, 22.07. 2:00 16.7° C leichter Regen
So, 22.07. 1:30 16.7° C Regen
Ortszeit Relative Feuchte Sichtweite
So, 22.07. 2:00 98% 6 km
Sa, 21.07. 20:00 87% 23 km
Sa, 21.07. 14:00 85% 18 km
Sa, 21.07. 8:00 91% 3.7 km
Sa, 21.07. 2:00 90% 18 km
Fr, 20.07. 20:00 56% 24 km
Fr, 20.07. 14:00 33% 21 km
Fr, 20.07. 8:00 73% 17 km
Ortszeit Relative Feuchte Sichtweite
So, 22.07. 4:30 99% 5.0 km
So, 22.07. 4:20 - 7 km
So, 22.07. 4:10 98% -
So, 22.07. 4:00 98% 6 km
So, 22.07. 3:50 98% -
So, 22.07. 3:40 98% -
So, 22.07. 3:30 98% 5.0 km
So, 22.07. 3:00 98% 5.0 km
So, 22.07. 2:30 97% 6 km
So, 22.07. 2:00 98% 6 km
So, 22.07. 1:30 99% 2.7 km
Ortszeit Niederschlagsmenge Niederschlagsart
So, 22.07. 2:00 9 l/m2 in 6 Std. Regen
Sa, 21.07. 20:00 16 l/m2 in 12 Std. Regenschauer
Sa, 21.07. 14:00 8 l/m2 in 6 Std. Regen
Sa, 21.07. 8:00 6 l/m2 in 12 Std. Regen
Sa, 21.07. 2:00 5 l/m2 in 6 Std. Regen
Fr, 20.07. 20:00 0.0 l/m2 in 12 Std. -
Fr, 20.07. 14:00 0.1 l/m2 in 6 Std. Niederschlag
Fr, 20.07. 8:00 0.0 l/m2 in 12 Std. -
Ortszeit Niederschlagsmenge Niederschlagsart
So, 22.07. 4:30 0.1 l/m2 in 1 Std. -
So, 22.07. 4:20 keine Meldung -
So, 22.07. 4:10 keine Meldung -
So, 22.07. 4:00 0.9 l/m2 in 1 Std. Regen
So, 22.07. 3:50 keine Meldung -
So, 22.07. 3:40 keine Meldung -
So, 22.07. 3:30 0.5 l/m2 in 1 Std. -
So, 22.07. 3:00 0.7 l/m2 in 1 Std. Regen
So, 22.07. 2:30 0.1 l/m2 in 1 Std. -
So, 22.07. 2:00 2.5 l/m2 in 1 Std. Regen
So, 22.07. 1:30 2.2 l/m2 in 1 Std. -
Ortszeit Stärke Spitze Richtung
km/h Bft. km/h Grad Sektor
So, 22.07. 2:00 13 3 22 280° W
Sa, 21.07. 20:00 2 1 24 120° SO
Sa, 21.07. 14:00 4 1 14 110° O
Sa, 21.07. 8:00 7 2 14 210° SW
Sa, 21.07. 2:00 6 1 24 220° SW
Fr, 20.07. 20:00 2 1 24 70° O
Fr, 20.07. 14:00 9 2 20 140° SO
Fr, 20.07. 8:00 4 1 11 260° W
Ortszeit Stärke Spitze Richtung
km/h Bft. km/h Grad Sektor
So, 22.07. 4:30 11 2 14 300° NW
So, 22.07. 4:20 11 2 - 280° W
So, 22.07. 4:10 9 2 - 290° W
So, 22.07. 4:00 11 2 18 280° W
So, 22.07. 3:50 11 2 - 280° W
So, 22.07. 3:40 11 2 - 290° W
So, 22.07. 3:30 11 2 14 290° W
So, 22.07. 3:00 11 2 18 290° W
So, 22.07. 2:30 13 3 19 270° W
So, 22.07. 2:00 13 3 22 280° W
So, 22.07. 1:30 13 3 22 320° NW
Ortszeit Untergrenze Bedeckung Gattung
total tief tief mittel hoch
So, 22.07. 2:00 180 m 8/8 8/8 - - -
Sa, 21.07. 20:00 780 m 8/8 1/8 - - -
Sa, 21.07. 14:00 1500 m 7/8 7/8 - - -
Sa, 21.07. 8:00 1500 m 8/8 8/8 - - -
Sa, 21.07. 2:00 3000 m 7/8 7/8 - - -
Fr, 20.07. 20:00 2700 m 8/8 5/8 - - -
Fr, 20.07. 14:00 - 0/8 0/8 - - -
Fr, 20.07. 8:00 - 0/8 0/8 - - -
Ortszeit Bedeckungsgrad in Achtel und Wolkenuntergrenze
So, 22.07. 4:30 6(150m) 7(300m) 8(450m)
So, 22.07. 4:20 -
So, 22.07. 4:10 6(180m) 7(330m)
So, 22.07. 4:00 2(210m) 7(390m) 7(690m)
So, 22.07. 3:50 2(210m) 7(390m) 7(690m)
So, 22.07. 3:40 4(420m) 7(960m) 8(1200m)
So, 22.07. 3:30 3(90m) 6(870m) 8(1200m)
So, 22.07. 3:00 5(240m) 7(390m) 7(750m)
So, 22.07. 2:30 2(300m) 7(450m) 8(1500m)
So, 22.07. 2:00 2(180m) 7(1230m) 8(1500m)
So, 22.07. 1:30 4(180m) 5(360m) 7(600m)
Ortszeit Luftdruck NN (hPa) Tendenz (hPa in 3 Std.)
So, 22.07. 2:00 1013 - 0,2
Sa, 21.07. 20:00 1012 + 0,1
Sa, 21.07. 14:00 1013 - 0,1
Sa, 21.07. 8:00 1012 + 0,7
Sa, 21.07. 2:00 1012 0,0
Fr, 20.07. 20:00 1010 - 0,7
Fr, 20.07. 14:00 1011 - 1,2
Fr, 20.07. 8:00 1015 - 0,2
Ortszeit Luftdruck NN (hPa) Tendenz (hPa in 3 Std.)
So, 22.07. 4:30 1013 - 0,1
So, 22.07. 4:20 1014 keine Meldung
So, 22.07. 4:10 1013 keine Meldung
So, 22.07. 4:00 1013 - 0,2
So, 22.07. 3:50 1013 keine Meldung
So, 22.07. 3:40 1013 keine Meldung
So, 22.07. 3:30 1013 - 0,2
So, 22.07. 3:00 1013 - 0,2
So, 22.07. 2:30 1013 - 0,3
So, 22.07. 2:00 1013 - 0,2
So, 22.07. 1:30 1013 - 0,1
Ortszeit Schneehöhe (cm)
So, 22.07. 2:00 -
Sa, 21.07. 20:00 -
Sa, 21.07. 14:00 -
Sa, 21.07. 8:00 -
Sa, 21.07. 2:00 -
Fr, 20.07. 20:00 -
Fr, 20.07. 14:00 -
Fr, 20.07. 8:00 -
Ortszeit Schneehöhe (cm)
So, 22.07. 4:30 -
So, 22.07. 4:20 -
So, 22.07. 4:10 -
So, 22.07. 4:00 -
So, 22.07. 3:50 -
So, 22.07. 3:40 -
So, 22.07. 3:30 -
So, 22.07. 3:00 -
So, 22.07. 2:30 -
So, 22.07. 2:00 -
So, 22.07. 1:30 -
Link zu dieser Seite / Seite empfehlen

Das Wetter in ...